CPD9 weather

Markdale (Centre Grey General Hospital) Heliport
Markdale, Ontario, Canada

Public forecast

Using degrees Celsius for public forecast. Weather courtesy of forecast.io.

Closest aviation weather report (METAR) to Markdale (Centre Grey General Hospital) Heliport

Report is more than 6 hours old.

Closest report is CFB Borden, 32.1 nm (59.5 km) E. Retrieved 2020/01/14 16:17 UTC (7 days ago):

CYBN 141617Z AUTO 13011KT 3SM OVC002 M01/M02 A3010

Closest aviation forecast (TAF) to Markdale (Centre Grey General Hospital) Heliport

Closest forecast is CFB Borden, 32.1 nm (59.5 km) E. Retrieved 2020-01-22 00:33 UTC (1 hour ago):

TAF TAF CYBN 212330Z 2200/2212 FCST NOT AVBL DUE NO OBS RMK NXT FCST BY 220600Z